sensor_id;sensor_type;location;lat;lon;timestamp;P1;durP1;ratioP1;P2;durP2;ratioP2
20754;SDS011;26385;48.470;7.938;2022-08-11T00:02:26;2.97;;;2.47;;
20754;SDS011;26385;48.470;7.938;2022-08-11T00:04:57;4.72;;;2.67;;
20754;SDS011;26385;48.470;7.938;2022-08-11T00:07:28;4.53;;;3.78;;
20754;SDS011;26385;48.470;7.938;2022-08-11T00:09:54;5.15;;;3.40;;
20754;SDS011;26385;48.470;7.938;2022-08-11T00:12:20;5.25;;;3.00;;
20754;SDS011;26385;48.470;7.938;2022-08-11T00:14:47;4.30;;;2.85;;
20754;SDS011;26385;48.470;7.938;2022-08-11T00:17:21;4.55;;;2.78;;
20754;SDS011;26385;48.470;7.938;2022-08-11T00:19:52;3.67;;;2.90;;
20754;SDS011;26385;48.470;7.938;2022-08-11T00:22:25;3.45;;;2.78;;
20754;SDS011;26385;48.470;7.938;2022-08-11T00:24:52;4.65;;;2.85;;
20754;SDS011;26385;48.470;7.938;2022-08-11T00:27:18;3.35;;;2.60;;
20754;SDS011;26385;48.470;7.938;2022-08-11T00:29:52;3.38;;;2.85;;
20754;SDS011;26385;48.470;7.938;2022-08-11T00:32:18;4.50;;;3.10;;
20754;SDS011;26385;48.470;7.938;2022-08-11T00:34:44;5.30;;;3.47;;
20754;SDS011;26385;48.470;7.938;2022-08-11T00:37:15;4.35;;;2.80;;
20754;SDS011;26385;48.470;7.938;2022-08-11T00:39:45;4.88;;;3.35;;
20754;SDS011;26385;48.470;7.938;2022-08-11T00:48:04;4.45;;;2.80;;
20754;SDS011;26385;48.470;7.938;2022-08-11T01:07:19;2.85;;;2.30;;
20754;SDS011;26385;48.470;7.938;2022-08-11T01:10:06;4.43;;;2.38;;
20754;SDS011;26385;48.470;7.938;2022-08-11T01:12:48;2.38;;;2.15;;
20754;SDS011;26385;48.470;7.938;2022-08-11T01:38:06;4.32;;;1.88;;
20754;SDS011;26385;48.470;7.938;2022-08-11T01:43:49;1.98;;;1.88;;
20754;SDS011;26385;48.470;7.938;2022-08-11T01:47:24;2.13;;;1.90;;
20754;SDS011;26385;48.470;7.938;2022-08-11T01:50:39;3.33;;;2.03;;
20754;SDS011;26385;48.470;7.938;2022-08-11T01:59:07;4.57;;;2.17;;
20754;SDS011;26385;48.470;7.938;2022-08-11T02:09:43;2.20;;;2.00;;
20754;SDS011;26385;48.470;7.938;2022-08-11T02:15:14;2.30;;;2.10;;
20754;SDS011;26385;48.470;7.938;2022-08-11T02:18:14;2.78;;;2.00;;
20754;SDS011;26385;48.470;7.938;2022-08-11T02:21:23;2.28;;;2.08;;
20754;SDS011;26385;48.470;7.938;2022-08-11T02:24:16;2.38;;;2.08;;
20754;SDS011;26385;48.470;7.938;2022-08-11T02:27:13;1.80;;;1.70;;
20754;SDS011;26385;48.470;7.938;2022-08-11T02:32:28;4.75;;;2.45;;
20754;SDS011;26385;48.470;7.938;2022-08-11T02:35:31;2.22;;;1.95;;
20754;SDS011;26385;48.470;7.938;2022-08-11T02:44:20;4.40;;;2.30;;
20754;SDS011;26385;48.470;7.938;2022-08-11T02:47:05;2.88;;;2.10;;
20754;SDS011;26385;48.470;7.938;2022-08-11T02:49:36;2.30;;;2.08;;
20754;SDS011;26385;48.470;7.938;2022-08-11T02:52:24;2.88;;;2.25;;
20754;SDS011;26385;48.470;7.938;2022-08-11T02:55:05;2.38;;;2.15;;
20754;SDS011;26385;48.470;7.938;2022-08-11T02:57:55;4.43;;;2.30;;
20754;SDS011;26385;48.470;7.938;2022-08-11T03:00:27;2.28;;;2.10;;
20754;SDS011;26385;48.470;7.938;2022-08-11T03:03:02;3.95;;;2.10;;
20754;SDS011;26385;48.470;7.938;2022-08-11T03:08:47;2.97;;;2.17;;
20754;SDS011;26385;48.470;7.938;2022-08-11T03:23:08;9.60;;;5.37;;
20754;SDS011;26385;48.470;7.938;2022-08-11T03:25:50;11.43;;;9.65;;
20754;SDS011;26385;48.470;7.938;2022-08-11T03:28:29;3.97;;;3.03;;
20754;SDS011;26385;48.470;7.938;2022-08-11T03:33:50;3.08;;;2.47;;
20754;SDS011;26385;48.470;7.938;2022-08-11T03:39:36;3.63;;;2.50;;
20754;SDS011;26385;48.470;7.938;2022-08-11T03:51:05;4.28;;;2.90;;
20754;SDS011;26385;48.470;7.938;2022-08-11T04:00:09;5.60;;;3.35;;
20754;SDS011;26385;48.470;7.938;2022-08-11T04:02:59;3.78;;;2.63;;
20754;SDS011;26385;48.470;7.938;2022-08-11T04:26:35;4.70;;;3.70;;
20754;SDS011;26385;48.470;7.938;2022-08-11T04:32:15;4.32;;;2.78;;
20754;SDS011;26385;48.470;7.938;2022-08-11T04:41:19;4.75;;;3.03;;
20754;SDS011;26385;48.470;7.938;2022-08-11T04:50:24;3.53;;;3.08;;
20754;SDS011;26385;48.470;7.938;2022-08-11T04:56:23;3.50;;;3.15;;
20754;SDS011;26385;48.470;7.938;2022-08-11T04:59:31;4.25;;;3.15;;
20754;SDS011;26385;48.470;7.938;2022-08-11T05:02:49;5.55;;;3.22;;
20754;SDS011;26385;48.470;7.938;2022-08-11T05:09:00;4.88;;;3.38;;
20754;SDS011;26385;48.470;7.938;2022-08-11T05:14:48;6.97;;;3.70;;
20754;SDS011;26385;48.470;7.938;2022-08-11T05:17:38;5.57;;;4.00;;
20754;SDS011;26385;48.470;7.938;2022-08-11T05:20:45;5.93;;;4.68;;
20754;SDS011;26385;48.470;7.938;2022-08-11T05:23:33;6.18;;;3.88;;
20754;SDS011;26385;48.470;7.938;2022-08-11T05:26:22;5.97;;;3.83;;
20754;SDS011;26385;48.470;7.938;2022-08-11T05:29:23;6.03;;;3.92;;
20754;SDS011;26385;48.470;7.938;2022-08-11T05:32:11;6.20;;;4.18;;
20754;SDS011;26385;48.470;7.938;2022-08-11T05:34:59;6.88;;;4.43;;
20754;SDS011;26385;48.470;7.938;2022-08-11T05:40:07;6.17;;;4.50;;
20754;SDS011;26385;48.470;7.938;2022-08-11T05:43:00;7.30;;;4.80;;
20754;SDS011;26385;48.470;7.938;2022-08-11T05:46:03;5.85;;;4.65;;
20754;SDS011;26385;48.470;7.938;2022-08-11T05:48:49;6.07;;;4.40;;
20754;SDS011;26385;48.470;7.938;2022-08-11T05:51:34;5.63;;;4.63;;
20754;SDS011;26385;48.470;7.938;2022-08-11T05:54:20;7.50;;;4.60;;
20754;SDS011;26385;48.470;7.938;2022-08-11T05:57:06;7.10;;;4.60;;
20754;SDS011;26385;48.470;7.938;2022-08-11T05:59:32;5.45;;;4.30;;
20754;SDS011;26385;48.470;7.938;2022-08-11T06:02:02;7.63;;;4.35;;
20754;SDS011;26385;48.470;7.938;2022-08-11T06:04:29;9.52;;;4.35;;
20754;SDS011;26385;48.470;7.938;2022-08-11T06:07:03;7.70;;;4.13;;
20754;SDS011;26385;48.470;7.938;2022-08-11T06:12:27;7.10;;;4.13;;
20754;SDS011;26385;48.470;7.938;2022-08-11T06:15:06;6.82;;;3.75;;
20754;SDS011;26385;48.470;7.938;2022-08-11T06:17:35;7.18;;;4.18;;
20754;SDS011;26385;48.470;7.938;2022-08-11T06:20:30;7.13;;;4.00;;
20754;SDS011;26385;48.470;7.938;2022-08-11T06:23:02;5.10;;;3.80;;
20754;SDS011;26385;48.470;7.938;2022-08-11T06:25:30;5.18;;;4.30;;
20754;SDS011;26385;48.470;7.938;2022-08-11T06:27:59;6.40;;;3.83;;
20754;SDS011;26385;48.470;7.938;2022-08-11T06:30:37;5.60;;;4.30;;
20754;SDS011;26385;48.470;7.938;2022-08-11T06:33:07;7.05;;;4.28;;
20754;SDS011;26385;48.470;7.938;2022-08-11T06:38:58;7.30;;;3.92;;
20754;SDS011;26385;48.470;7.938;2022-08-11T06:41:45;5.03;;;3.58;;
20754;SDS011;26385;48.470;7.938;2022-08-11T06:44:18;5.50;;;3.50;;
20754;SDS011;26385;48.470;7.938;2022-08-11T06:46:51;4.45;;;3.33;;
20754;SDS011;26385;48.470;7.938;2022-08-11T06:49:20;3.53;;;3.05;;
20754;SDS011;26385;48.470;7.938;2022-08-11T06:52:07;3.80;;;3.40;;
20754;SDS011;26385;48.470;7.938;2022-08-11T06:54:38;6.07;;;3.53;;
20754;SDS011;26385;48.470;7.938;2022-08-11T06:57:10;7.88;;;3.45;;
20754;SDS011;26385;48.470;7.938;2022-08-11T06:59:56;4.38;;;3.70;;
20754;SDS011;26385;48.470;7.938;2022-08-11T07:02:51;7.53;;;3.70;;
20754;SDS011;26385;48.470;7.938;2022-08-11T07:05:22;5.50;;;3.30;;
20754;SDS011;26385;48.470;7.938;2022-08-11T07:14:28;3.50;;;3.10;;
20754;SDS011;26385;48.470;7.938;2022-08-11T07:17:14;4.70;;;2.90;;
20754;SDS011;26385;48.470;7.938;2022-08-11T07:19:46;4.90;;;3.28;;
20754;SDS011;26385;48.470;7.938;2022-08-11T07:22:35;7.70;;;3.00;;
20754;SDS011;26385;48.470;7.938;2022-08-11T07:25:20;6.93;;;3.10;;
20754;SDS011;26385;48.470;7.938;2022-08-11T07:28:06;5.90;;;2.95;;
20754;SDS011;26385;48.470;7.938;2022-08-11T07:30:55;4.90;;;3.05;;
20754;SDS011;26385;48.470;7.938;2022-08-11T07:33:34;5.13;;;3.00;;
20754;SDS011;26385;48.470;7.938;2022-08-11T07:36:11;4.90;;;2.88;;
20754;SDS011;26385;48.470;7.938;2022-08-11T07:38:40;5.53;;;2.80;;
20754;SDS011;26385;48.470;7.938;2022-08-11T07:41:11;9.98;;;3.50;;
20754;SDS011;26385;48.470;7.938;2022-08-11T07:43:39;3.65;;;3.08;;
20754;SDS011;26385;48.470;7.938;2022-08-11T07:46:06;4.28;;;2.80;;
20754;SDS011;26385;48.470;7.938;2022-08-11T07:48:51;5.72;;;3.13;;
20754;SDS011;26385;48.470;7.938;2022-08-11T07:51:36;5.32;;;2.80;;
20754;SDS011;26385;48.470;7.938;2022-08-11T07:54:21;3.67;;;2.90;;
20754;SDS011;26385;48.470;7.938;2022-08-11T07:56:47;3.33;;;2.88;;
20754;SDS011;26385;48.470;7.938;2022-08-11T07:59:13;3.75;;;2.80;;
20754;SDS011;26385;48.470;7.938;2022-08-11T08:01:57;4.00;;;2.80;;
20754;SDS011;26385;48.470;7.938;2022-08-11T08:04:42;3.15;;;2.80;;
20754;SDS011;26385;48.470;7.938;2022-08-11T08:07:29;4.20;;;2.63;;
20754;SDS011;26385;48.470;7.938;2022-08-11T08:10:13;4.72;;;2.88;;
20754;SDS011;26385;48.470;7.938;2022-08-11T08:13:01;3.63;;;2.63;;
20754;SDS011;26385;48.470;7.938;2022-08-11T08:15:45;7.75;;;3.28;;
20754;SDS011;26385;48.470;7.938;2022-08-11T08:18:32;3.10;;;2.38;;
20754;SDS011;26385;48.470;7.938;2022-08-11T08:20:59;3.25;;;2.60;;
20754;SDS011;26385;48.470;7.938;2022-08-11T08:23:35;5.85;;;2.63;;
20754;SDS011;26385;48.470;7.938;2022-08-11T08:26:04;3.92;;;2.75;;
20754;SDS011;26385;48.470;7.938;2022-08-11T08:28:54;3.35;;;2.42;;
20754;SDS011;26385;48.470;7.938;2022-08-11T08:31:40;5.38;;;2.72;;
20754;SDS011;26385;48.470;7.938;2022-08-11T08:34:06;4.72;;;4.18;;
20754;SDS011;26385;48.470;7.938;2022-08-11T08:36:32;4.15;;;3.30;;
20754;SDS011;26385;48.470;7.938;2022-08-11T08:38:58;5.78;;;2.70;;
20754;SDS011;26385;48.470;7.938;2022-08-11T08:41:27;4.95;;;2.70;;
20754;SDS011;26385;48.470;7.938;2022-08-11T08:43:54;4.60;;;2.70;;
20754;SDS011;26385;48.470;7.938;2022-08-11T08:46:28;3.97;;;2.60;;
20754;SDS011;26385;48.470;7.938;2022-08-11T08:48:59;2.75;;;2.38;;
20754;SDS011;26385;48.470;7.938;2022-08-11T08:51:26;4.68;;;2.40;;
20754;SDS011;26385;48.470;7.938;2022-08-11T08:54:00;3.05;;;2.08;;
20754;SDS011;26385;48.470;7.938;2022-08-11T08:56:31;3.08;;;2.30;;
20754;SDS011;26385;48.470;7.938;2022-08-11T08:59:00;2.20;;;2.00;;
20754;SDS011;26385;48.470;7.938;2022-08-11T09:01:30;4.43;;;2.00;;
20754;SDS011;26385;48.470;7.938;2022-08-11T09:04:00;6.60;;;2.20;;
20754;SDS011;26385;48.470;7.938;2022-08-11T09:06:30;5.03;;;2.10;;
20754;SDS011;26385;48.470;7.938;2022-08-11T09:08:57;2.90;;;2.00;;
20754;SDS011;26385;48.470;7.938;2022-08-11T09:11:23;3.67;;;2.00;;
20754;SDS011;26385;48.470;7.938;2022-08-11T09:14:08;2.67;;;1.90;;
20754;SDS011;26385;48.470;7.938;2022-08-11T09:16:35;5.15;;;2.10;;
20754;SDS011;26385;48.470;7.938;2022-08-11T09:19:02;2.90;;;2.20;;
20754;SDS011;26385;48.470;7.938;2022-08-11T09:21:29;3.92;;;2.03;;
20754;SDS011;26385;48.470;7.938;2022-08-11T09:23:56;2.20;;;2.00;;
20754;SDS011;26385;48.470;7.938;2022-08-11T09:26:41;5.65;;;1.98;;
20754;SDS011;26385;48.470;7.938;2022-08-11T09:29:28;5.32;;;2.08;;
20754;SDS011;26385;48.470;7.938;2022-08-11T09:31:55;4.63;;;2.20;;
20754;SDS011;26385;48.470;7.938;2022-08-11T09:34:22;4.43;;;1.90;;
20754;SDS011;26385;48.470;7.938;2022-08-11T09:36:50;2.35;;;1.80;;
20754;SDS011;26385;48.470;7.938;2022-08-11T09:39:35;2.05;;;1.85;;
20754;SDS011;26385;48.470;7.938;2022-08-11T09:42:38;2.33;;;1.80;;
20754;SDS011;26385;48.470;7.938;2022-08-11T09:45:22;2.03;;;1.85;;
20754;SDS011;26385;48.470;7.938;2022-08-11T09:47:48;3.35;;;3.05;;
20754;SDS011;26385;48.470;7.938;2022-08-11T09:50:14;3.75;;;2.80;;
20754;SDS011;26385;48.470;7.938;2022-08-11T09:52:41;2.10;;;1.92;;
20754;SDS011;26385;48.470;7.938;2022-08-11T09:55:09;2.22;;;1.98;;
20754;SDS011;26385;48.470;7.938;2022-08-11T09:57:43;3.00;;;1.90;;
20754;SDS011;26385;48.470;7.938;2022-08-11T10:00:30;2.60;;;1.70;;
20754;SDS011;26385;48.470;7.938;2022-08-11T10:03:02;2.30;;;1.88;;
20754;SDS011;26385;48.470;7.938;2022-08-11T10:05:31;4.53;;;2.00;;
20754;SDS011;26385;48.470;7.938;2022-08-11T10:08:16;3.10;;;1.90;;
20754;SDS011;26385;48.470;7.938;2022-08-11T10:10:43;3.65;;;2.20;;
20754;SDS011;26385;48.470;7.938;2022-08-11T10:13:12;3.20;;;1.80;;
20754;SDS011;26385;48.470;7.938;2022-08-11T10:15:42;2.83;;;1.88;;
20754;SDS011;26385;48.470;7.938;2022-08-11T10:18:17;3.38;;;2.05;;
20754;SDS011;26385;48.470;7.938;2022-08-11T10:21:08;3.13;;;2.10;;
20754;SDS011;26385;48.470;7.938;2022-08-11T10:23:39;7.15;;;2.03;;
20754;SDS011;26385;48.470;7.938;2022-08-11T10:26:24;4.38;;;1.85;;
20754;SDS011;26385;48.470;7.938;2022-08-11T10:29:11;4.10;;;2.05;;
20754;SDS011;26385;48.470;7.938;2022-08-11T10:31:57;3.95;;;1.90;;
20754;SDS011;26385;48.470;7.938;2022-08-11T10:34:42;3.17;;;2.20;;
20754;SDS011;26385;48.470;7.938;2022-08-11T10:37:11;2.17;;;1.98;;
20754;SDS011;26385;48.470;7.938;2022-08-11T10:39:36;3.50;;;2.15;;
20754;SDS011;26385;48.470;7.938;2022-08-11T10:42:04;4.57;;;2.00;;
20754;SDS011;26385;48.470;7.938;2022-08-11T10:44:52;2.10;;;1.90;;
20754;SDS011;26385;48.470;7.938;2022-08-11T10:47:19;2.78;;;1.95;;
20754;SDS011;26385;48.470;7.938;2022-08-11T10:50:09;2.53;;;1.88;;
20754;SDS011;26385;48.470;7.938;2022-08-11T10:52:55;2.00;;;1.52;;
20754;SDS011;26385;48.470;7.938;2022-08-11T10:55:41;2.35;;;1.80;;
20754;SDS011;26385;48.470;7.938;2022-08-11T10:58:27;2.92;;;1.60;;
20754;SDS011;26385;48.470;7.938;2022-08-11T11:01:11;1.70;;;1.60;;
20754;SDS011;26385;48.470;7.938;2022-08-11T11:03:38;2.40;;;2.15;;
20754;SDS011;26385;48.470;7.938;2022-08-11T11:06:20;2.10;;;1.95;;
20754;SDS011;26385;48.470;7.938;2022-08-11T11:08:50;2.78;;;1.83;;
20754;SDS011;26385;48.470;7.938;2022-08-11T11:11:22;2.03;;;1.80;;
20754;SDS011;26385;48.470;7.938;2022-08-11T11:14:09;2.72;;;1.75;;
20754;SDS011;26385;48.470;7.938;2022-08-11T11:16:57;2.13;;;1.98;;
20754;SDS011;26385;48.470;7.938;2022-08-11T11:19:38;4.63;;;1.95;;
20754;SDS011;26385;48.470;7.938;2022-08-11T11:22:04;3.05;;;2.00;;
20754;SDS011;26385;48.470;7.938;2022-08-11T11:24:53;2.67;;;1.80;;
20754;SDS011;26385;48.470;7.938;2022-08-11T11:27:49;2.03;;;1.80;;
20754;SDS011;26385;48.470;7.938;2022-08-11T11:30:27;2.78;;;1.90;;
20754;SDS011;26385;48.470;7.938;2022-08-11T11:33:03;2.90;;;1.90;;
20754;SDS011;26385;48.470;7.938;2022-08-11T11:35:36;4.57;;;1.85;;
20754;SDS011;26385;48.470;7.938;2022-08-11T11:38:13;1.98;;;1.77;;
20754;SDS011;26385;48.470;7.938;2022-08-11T11:40:40;1.88;;;1.77;;
20754;SDS011;26385;48.470;7.938;2022-08-11T11:43:06;1.88;;;1.77;;
20754;SDS011;26385;48.470;7.938;2022-08-11T11:45:32;3.83;;;1.80;;
20754;SDS011;26385;48.470;7.938;2022-08-11T11:47:58;4.07;;;1.90;;
20754;SDS011;26385;48.470;7.938;2022-08-11T11:50:28;3.50;;;2.10;;
20754;SDS011;26385;48.470;7.938;2022-08-11T11:52:59;3.33;;;2.10;;
20754;SDS011;26385;48.470;7.938;2022-08-11T11:55:27;2.92;;;1.80;;
20754;SDS011;26385;48.470;7.938;2022-08-11T11:57:53;2.40;;;1.77;;
20754;SDS011;26385;48.470;7.938;2022-08-11T12:00:39;2.97;;;2.05;;
20754;SDS011;26385;48.470;7.938;2022-08-11T12:03:25;3.05;;;1.92;;
20754;SDS011;26385;48.470;7.938;2022-08-11T12:05:53;4.32;;;2.00;;
20754;SDS011;26385;48.470;7.938;2022-08-11T12:08:18;3.25;;;2.03;;
20754;SDS011;26385;48.470;7.938;2022-08-11T12:10:50;4.78;;;1.77;;
20754;SDS011;26385;48.470;7.938;2022-08-11T12:13:37;2.15;;;1.95;;
20754;SDS011;26385;48.470;7.938;2022-08-11T12:16:05;2.95;;;2.08;;
20754;SDS011;26385;48.470;7.938;2022-08-11T12:18:33;2.00;;;1.77;;
20754;SDS011;26385;48.470;7.938;2022-08-11T12:21:00;1.90;;;1.80;;
20754;SDS011;26385;48.470;7.938;2022-08-11T12:23:27;3.33;;;2.00;;
20754;SDS011;26385;48.470;7.938;2022-08-11T12:26:12;2.30;;;1.80;;
20754;SDS011;26385;48.470;7.938;2022-08-11T12:28:58;2.33;;;2.00;;
20754;SDS011;26385;48.470;7.938;2022-08-11T12:31:25;3.90;;;2.00;;
20754;SDS011;26385;48.470;7.938;2022-08-11T12:33:58;3.72;;;2.17;;
20754;SDS011;26385;48.470;7.938;2022-08-11T12:36:42;1.77;;;1.60;;
20754;SDS011;26385;48.470;7.938;2022-08-11T12:39:11;2.30;;;1.83;;
20754;SDS011;26385;48.470;7.938;2022-08-11T12:41:43;2.05;;;1.90;;
20754;SDS011;26385;48.470;7.938;2022-08-11T12:44:28;4.82;;;2.20;;
20754;SDS011;26385;48.470;7.938;2022-08-11T12:47:15;2.40;;;1.92;;
20754;SDS011;26385;48.470;7.938;2022-08-11T12:49:43;2.13;;;1.92;;
20754;SDS011;26385;48.470;7.938;2022-08-11T12:52:40;3.47;;;1.92;;
20754;SDS011;26385;48.470;7.938;2022-08-11T12:55:10;2.08;;;1.95;;
20754;SDS011;26385;48.470;7.938;2022-08-11T12:57:58;2.20;;;2.00;;
20754;SDS011;26385;48.470;7.938;2022-08-11T13:00:40;6.05;;;2.45;;
20754;SDS011;26385;48.470;7.938;2022-08-11T13:03:24;3.38;;;1.63;;
20754;SDS011;26385;48.470;7.938;2022-08-11T13:06:08;2.85;;;1.92;;
20754;SDS011;26385;48.470;7.938;2022-08-11T13:08:36;3.33;;;2.00;;
20754;SDS011;26385;48.470;7.938;2022-08-11T13:11:03;2.17;;;1.98;;
20754;SDS011;26385;48.470;7.938;2022-08-11T13:13:48;7.43;;;2.10;;
20754;SDS011;26385;48.470;7.938;2022-08-11T13:16:16;2.78;;;2.08;;
20754;SDS011;26385;48.470;7.938;2022-08-11T13:18:41;2.25;;;2.05;;
20754;SDS011;26385;48.470;7.938;2022-08-11T13:21:11;3.40;;;1.80;;
20754;SDS011;26385;48.470;7.938;2022-08-11T13:23:38;2.55;;;2.00;;
20754;SDS011;26385;48.470;7.938;2022-08-11T13:26:04;4.05;;;1.90;;
20754;SDS011;26385;48.470;7.938;2022-08-11T13:28:32;3.38;;;2.05;;
20754;SDS011;26385;48.470;7.938;2022-08-11T13:31:00;2.00;;;1.90;;
20754;SDS011;26385;48.470;7.938;2022-08-11T13:33:39;2.65;;;2.00;;
20754;SDS011;26385;48.470;7.938;2022-08-11T13:36:07;2.67;;;2.00;;
20754;SDS011;26385;48.470;7.938;2022-08-11T13:38:33;3.13;;;1.90;;
20754;SDS011;26385;48.470;7.938;2022-08-11T13:40:59;2.38;;;1.83;;
20754;SDS011;26385;48.470;7.938;2022-08-11T13:43:25;1.90;;;1.80;;
20754;SDS011;26385;48.470;7.938;2022-08-11T13:45:52;2.00;;;1.80;;
20754;SDS011;26385;48.470;7.938;2022-08-11T13:48:39;2.80;;;1.92;;
20754;SDS011;26385;48.470;7.938;2022-08-11T13:51:06;1.88;;;1.77;;
20754;SDS011;26385;48.470;7.938;2022-08-11T13:53:52;2.08;;;1.88;;
20754;SDS011;26385;48.470;7.938;2022-08-11T13:56:18;3.65;;;2.00;;
20754;SDS011;26385;48.470;7.938;2022-08-11T13:58:46;2.30;;;1.98;;
20754;SDS011;26385;48.470;7.938;2022-08-11T14:01:12;1.70;;;1.60;;
20754;SDS011;26385;48.470;7.938;2022-08-11T14:03:37;2.95;;;1.80;;
20754;SDS011;26385;48.470;7.938;2022-08-11T14:06:06;2.95;;;1.80;;
20754;SDS011;26385;48.470;7.938;2022-08-11T14:08:34;3.17;;;1.67;;
20754;SDS011;26385;48.470;7.938;2022-08-11T14:11:03;4.57;;;1.80;;
20754;SDS011;26385;48.470;7.938;2022-08-11T14:13:49;3.72;;;1.73;;
20754;SDS011;26385;48.470;7.938;2022-08-11T14:16:25;1.92;;;1.70;;
20754;SDS011;26385;48.470;7.938;2022-08-11T14:18:56;2.95;;;1.60;;
20754;SDS011;26385;48.470;7.938;2022-08-11T14:21:32;2.25;;;1.73;;
20754;SDS011;26385;48.470;7.938;2022-08-11T14:24:19;4.97;;;1.67;;
20754;SDS011;26385;48.470;7.938;2022-08-11T14:26:46;1.70;;;1.60;;
20754;SDS011;26385;48.470;7.938;2022-08-11T14:29:15;3.95;;;1.90;;
20754;SDS011;26385;48.470;7.938;2022-08-11T14:31:44;2.17;;;1.60;;
20754;SDS011;26385;48.470;7.938;2022-08-11T14:34:11;3.47;;;1.83;;
20754;SDS011;26385;48.470;7.938;2022-08-11T14:36:42;3.20;;;1.80;;
20754;SDS011;26385;48.470;7.938;2022-08-11T14:39:10;2.20;;;1.75;;
20754;SDS011;26385;48.470;7.938;2022-08-11T14:41:44;2.00;;;1.80;;
20754;SDS011;26385;48.470;7.938;2022-08-11T14:44:31;1.80;;;1.70;;
20754;SDS011;26385;48.470;7.938;2022-08-11T14:47:18;1.83;;;1.73;;
20754;SDS011;26385;48.470;7.938;2022-08-11T14:49:45;1.92;;;1.83;;
20754;SDS011;26385;48.470;7.938;2022-08-11T14:52:13;4.07;;;2.08;;
20754;SDS011;26385;48.470;7.938;2022-08-11T14:54:43;6.57;;;2.17;;
20754;SDS011;26385;48.470;7.938;2022-08-11T14:57:30;3.25;;;1.77;;
20754;SDS011;26385;48.470;7.938;2022-08-11T14:59:57;2.15;;;1.90;;
20754;SDS011;26385;48.470;7.938;2022-08-11T15:02:26;2.55;;;1.77;;
20754;SDS011;26385;48.470;7.938;2022-08-11T15:05:10;1.80;;;1.67;;
20754;SDS011;26385;48.470;7.938;2022-08-11T15:07:36;2.28;;;1.80;;
20754;SDS011;26385;48.470;7.938;2022-08-11T15:10:03;2.17;;;1.98;;
20754;SDS011;26385;48.470;7.938;2022-08-11T15:12:30;2.38;;;1.80;;
20754;SDS011;26385;48.470;7.938;2022-08-11T15:14:58;2.20;;;1.60;;
20754;SDS011;26385;48.470;7.938;2022-08-11T15:17:44;2.63;;;1.80;;
20754;SDS011;26385;48.470;7.938;2022-08-11T15:20:12;4.95;;;2.08;;
20754;SDS011;26385;48.470;7.938;2022-08-11T15:23:00;3.95;;;2.00;;
20754;SDS011;26385;48.470;7.938;2022-08-11T15:25:45;2.75;;;2.00;;
20754;SDS011;26385;48.470;7.938;2022-08-11T15:28:15;5.18;;;2.13;;
20754;SDS011;26385;48.470;7.938;2022-08-11T15:31:02;3.15;;;1.98;;
20754;SDS011;26385;48.470;7.938;2022-08-11T15:33:48;5.15;;;2.17;;
20754;SDS011;26385;48.470;7.938;2022-08-11T15:36:35;3.35;;;2.08;;
20754;SDS011;26385;48.470;7.938;2022-08-11T15:39:22;2.30;;;2.10;;
20754;SDS011;26385;48.470;7.938;2022-08-11T15:42:34;2.00;;;1.90;;
20754;SDS011;26385;48.470;7.938;2022-08-11T15:45:02;2.63;;;2.10;;
20754;SDS011;26385;48.470;7.938;2022-08-11T15:47:51;3.13;;;1.90;;
20754;SDS011;26385;48.470;7.938;2022-08-11T15:50:24;2.47;;;1.80;;
20754;SDS011;26385;48.470;7.938;2022-08-11T15:52:58;2.10;;;1.90;;
20754;SDS011;26385;48.470;7.938;2022-08-11T15:55:26;4.63;;;2.10;;
20754;SDS011;26385;48.470;7.938;2022-08-11T15:57:54;3.38;;;1.90;;
20754;SDS011;26385;48.470;7.938;2022-08-11T16:00:44;1.88;;;1.75;;
20754;SDS011;26385;48.470;7.938;2022-08-11T16:03:29;2.20;;;2.00;;
20754;SDS011;26385;48.470;7.938;2022-08-11T16:06:18;3.95;;;2.13;;
20754;SDS011;26385;48.470;7.938;2022-08-11T16:08:44;3.70;;;1.98;;
20754;SDS011;26385;48.470;7.938;2022-08-11T16:11:11;2.95;;;2.10;;
20754;SDS011;26385;48.470;7.938;2022-08-11T16:13:37;2.47;;;1.80;;
20754;SDS011;26385;48.470;7.938;2022-08-11T16:16:06;2.17;;;1.98;;
20754;SDS011;26385;48.470;7.938;2022-08-11T16:18:50;4.07;;;2.00;;
20754;SDS011;26385;48.470;7.938;2022-08-11T16:21:25;2.95;;;2.17;;
20754;SDS011;26385;48.470;7.938;2022-08-11T16:23:54;5.38;;;1.80;;
20754;SDS011;26385;48.470;7.938;2022-08-11T16:26:23;3.50;;;3.20;;
20754;SDS011;26385;48.470;7.938;2022-08-11T16:28:51;3.17;;;2.88;;
20754;SDS011;26385;48.470;7.938;2022-08-11T16:31:19;2.83;;;2.17;;
20754;SDS011;26385;48.470;7.938;2022-08-11T16:33:46;2.33;;;2.10;;
20754;SDS011;26385;48.470;7.938;2022-08-11T16:36:13;2.45;;;1.98;;
20754;SDS011;26385;48.470;7.938;2022-08-11T16:38:59;5.20;;;2.15;;
20754;SDS011;26385;48.470;7.938;2022-08-11T16:41:28;3.47;;;2.00;;
20754;SDS011;26385;48.470;7.938;2022-08-11T16:44:16;2.35;;;2.03;;
20754;SDS011;26385;48.470;7.938;2022-08-11T16:47:01;2.33;;;1.90;;
20754;SDS011;26385;48.470;7.938;2022-08-11T16:49:32;3.15;;;2.20;;
20754;SDS011;26385;48.470;7.938;2022-08-11T16:51:58;2.55;;;2.28;;
20754;SDS011;26385;48.470;7.938;2022-08-11T16:54:31;2.67;;;2.03;;
20754;SDS011;26385;48.470;7.938;2022-08-11T16:56:59;3.58;;;3.00;;
20754;SDS011;26385;48.470;7.938;2022-08-11T16:59:54;3.17;;;1.88;;
20754;SDS011;26385;48.470;7.938;2022-08-11T17:02:26;2.35;;;2.15;;
20754;SDS011;26385;48.470;7.938;2022-08-11T17:05:16;3.25;;;1.98;;
20754;SDS011;26385;48.470;7.938;2022-08-11T17:08:02;4.93;;;2.45;;
20754;SDS011;26385;48.470;7.938;2022-08-11T17:10:59;16.02;;;2.45;;
20754;SDS011;26385;48.470;7.938;2022-08-11T17:13:49;13.32;;;2.58;;
20754;SDS011;26385;48.470;7.938;2022-08-11T17:16:30;7.35;;;2.40;;
20754;SDS011;26385;48.470;7.938;2022-08-11T17:19:00;11.00;;;2.65;;
20754;SDS011;26385;48.470;7.938;2022-08-11T17:21:29;4.28;;;2.00;;
20754;SDS011;26385;48.470;7.938;2022-08-11T17:23:58;2.90;;;2.22;;
20754;SDS011;26385;48.470;7.938;2022-08-11T17:26:29;3.72;;;1.90;;
20754;SDS011;26385;48.470;7.938;2022-08-11T17:29:16;3.03;;;2.00;;
20754;SDS011;26385;48.470;7.938;2022-08-11T17:31:44;2.35;;;1.90;;
20754;SDS011;26385;48.470;7.938;2022-08-11T17:34:29;3.05;;;2.10;;
20754;SDS011;26385;48.470;7.938;2022-08-11T17:37:13;2.75;;;1.92;;
20754;SDS011;26385;48.470;7.938;2022-08-11T17:39:39;3.22;;;2.22;;
20754;SDS011;26385;48.470;7.938;2022-08-11T17:42:05;3.85;;;2.20;;
20754;SDS011;26385;48.470;7.938;2022-08-11T17:44:50;2.60;;;2.00;;
20754;SDS011;26385;48.470;7.938;2022-08-11T17:47:35;3.67;;;2.00;;
20754;SDS011;26385;48.470;7.938;2022-08-11T17:50:20;3.20;;;2.20;;
20754;SDS011;26385;48.470;7.938;2022-08-11T17:52:46;3.20;;;2.20;;
20754;SDS011;26385;48.470;7.938;2022-08-11T17:55:31;2.95;;;2.10;;
20754;SDS011;26385;48.470;7.938;2022-08-11T17:58:17;3.05;;;2.20;;
20754;SDS011;26385;48.470;7.938;2022-08-11T18:01:01;4.90;;;2.05;;
20754;SDS011;26385;48.470;7.938;2022-08-11T18:03:29;2.83;;;2.05;;
20754;SDS011;26385;48.470;7.938;2022-08-11T18:06:03;2.55;;;2.03;;
20754;SDS011;26385;48.470;7.938;2022-08-11T18:08:30;2.58;;;2.13;;
20754;SDS011;26385;48.470;7.938;2022-08-11T18:11:15;4.65;;;2.92;;
20754;SDS011;26385;48.470;7.938;2022-08-11T18:14:01;4.97;;;4.50;;
20754;SDS011;26385;48.470;7.938;2022-08-11T18:16:48;4.47;;;3.00;;
20754;SDS011;26385;48.470;7.938;2022-08-11T18:19:32;4.22;;;2.20;;
20754;SDS011;26385;48.470;7.938;2022-08-11T18:22:23;3.08;;;2.10;;
20754;SDS011;26385;48.470;7.938;2022-08-11T18:25:19;2.45;;;2.05;;
20754;SDS011;26385;48.470;7.938;2022-08-11T18:28:09;3.67;;;2.30;;
20754;SDS011;26385;48.470;7.938;2022-08-11T18:30:56;3.53;;;2.20;;
20754;SDS011;26385;48.470;7.938;2022-08-11T18:33:44;3.30;;;2.22;;
20754;SDS011;26385;48.470;7.938;2022-08-11T18:36:37;4.57;;;2.70;;
20754;SDS011;26385;48.470;7.938;2022-08-11T18:39:29;3.70;;;2.63;;
20754;SDS011;26385;48.470;7.938;2022-08-11T18:42:16;3.42;;;2.30;;